sensor_id;sensor_type;location;lat;lon;timestamp;P1;durP1;ratioP1;P2;durP2;ratioP2
44446;SDS011;30152;52.066;5.358;2023-08-07T07:04:14;12.50;;;3.40;;
44446;SDS011;30152;52.066;5.358;2023-08-07T07:06:39;19.45;;;3.97;;
44446;SDS011;30152;52.066;5.358;2023-08-07T07:09:05;13.50;;;3.45;;
44446;SDS011;30152;52.066;5.358;2023-08-07T07:11:31;13.65;;;3.30;;
44446;SDS011;30152;52.066;5.358;2023-08-07T07:13:57;13.15;;;3.15;;
44446;SDS011;30152;52.066;5.358;2023-08-07T07:16:23;12.68;;;3.20;;
44446;SDS011;30152;52.066;5.358;2023-08-07T07:18:49;12.20;;;3.58;;
44446;SDS011;30152;52.066;5.358;2023-08-07T07:21:16;17.02;;;3.55;;
44446;SDS011;30152;52.066;5.358;2023-08-07T07:23:42;16.98;;;3.55;;
44446;SDS011;30152;52.066;5.358;2023-08-07T07:26:08;11.18;;;3.47;;
44446;SDS011;30152;52.066;5.358;2023-08-07T07:28:34;17.52;;;3.38;;
44446;SDS011;30152;52.066;5.358;2023-08-07T07:31:00;15.60;;;3.83;;
44446;SDS011;30152;52.066;5.358;2023-08-07T07:33:25;11.57;;;3.40;;
44446;SDS011;30152;52.066;5.358;2023-08-07T07:35:52;12.55;;;3.00;;
44446;SDS011;30152;52.066;5.358;2023-08-07T07:38:18;15.75;;;3.50;;
44446;SDS011;30152;52.066;5.358;2023-08-07T07:40:44;14.05;;;3.35;;
44446;SDS011;30152;52.066;5.358;2023-08-07T07:43:10;15.00;;;4.25;;
44446;SDS011;30152;52.066;5.358;2023-08-07T07:45:36;14.82;;;3.75;;
44446;SDS011;30152;52.066;5.358;2023-08-07T07:48:02;12.48;;;3.92;;
44446;SDS011;30152;52.066;5.358;2023-08-07T07:50:28;12.80;;;3.67;;
44446;SDS011;30152;52.066;5.358;2023-08-07T07:52:53;16.38;;;4.13;;
44446;SDS011;30152;52.066;5.358;2023-08-07T07:55:20;18.60;;;4.32;;
44446;SDS011;30152;52.066;5.358;2023-08-07T07:57:46;17.27;;;3.40;;
44446;SDS011;30152;52.066;5.358;2023-08-07T08:00:12;15.95;;;3.40;;
44446;SDS011;30152;52.066;5.358;2023-08-07T08:02:38;15.57;;;3.78;;
44446;SDS011;30152;52.066;5.358;2023-08-07T08:05:06;12.20;;;3.67;;
44446;SDS011;30152;52.066;5.358;2023-08-07T08:07:32;16.30;;;3.90;;
44446;SDS011;30152;52.066;5.358;2023-08-07T08:09:59;13.73;;;3.47;;
44446;SDS011;30152;52.066;5.358;2023-08-07T08:12:25;17.52;;;3.65;;
44446;SDS011;30152;52.066;5.358;2023-08-07T08:14:51;12.55;;;3.38;;
44446;SDS011;30152;52.066;5.358;2023-08-07T08:17:17;17.40;;;3.45;;
44446;SDS011;30152;52.066;5.358;2023-08-07T08:19:43;16.90;;;3.63;;
44446;SDS011;30152;52.066;5.358;2023-08-07T08:22:09;13.55;;;3.25;;
44446;SDS011;30152;52.066;5.358;2023-08-07T08:24:35;15.43;;;2.85;;
44446;SDS011;30152;52.066;5.358;2023-08-07T08:27:01;9.95;;;2.60;;
44446;SDS011;30152;52.066;5.358;2023-08-07T08:29:27;14.32;;;3.15;;
44446;SDS011;30152;52.066;5.358;2023-08-07T08:31:53;16.08;;;3.75;;
44446;SDS011;30152;52.066;5.358;2023-08-07T08:34:20;11.10;;;3.25;;
44446;SDS011;30152;52.066;5.358;2023-08-07T08:36:46;12.73;;;3.05;;
44446;SDS011;30152;52.066;5.358;2023-08-07T08:39:12;13.38;;;3.13;;
44446;SDS011;30152;52.066;5.358;2023-08-07T08:41:38;14.07;;;3.35;;
44446;SDS011;30152;52.066;5.358;2023-08-07T08:44:06;11.20;;;3.00;;
44446;SDS011;30152;52.066;5.358;2023-08-07T08:46:34;12.77;;;2.53;;
44446;SDS011;30152;52.066;5.358;2023-08-07T08:49:00;13.35;;;3.10;;
44446;SDS011;30152;52.066;5.358;2023-08-07T08:51:28;18.42;;;3.97;;
44446;SDS011;30152;52.066;5.358;2023-08-07T08:53:55;12.13;;;3.08;;
44446;SDS011;30152;52.066;5.358;2023-08-07T08:56:21;12.38;;;2.47;;
44446;SDS011;30152;52.066;5.358;2023-08-07T08:58:48;19.70;;;4.32;;
44446;SDS011;30152;52.066;5.358;2023-08-07T09:01:15;12.25;;;3.50;;
44446;SDS011;30152;52.066;5.358;2023-08-07T09:03:43;12.57;;;2.45;;
44446;SDS011;30152;52.066;5.358;2023-08-07T09:06:10;13.88;;;2.60;;
44446;SDS011;30152;52.066;5.358;2023-08-07T09:08:37;11.23;;;2.28;;
44446;SDS011;30152;52.066;5.358;2023-08-07T09:11:08;11.77;;;2.50;;
44446;SDS011;30152;52.066;5.358;2023-08-07T09:13:36;11.80;;;2.42;;
44446;SDS011;30152;52.066;5.358;2023-08-07T09:16:03;8.57;;;2.90;;
44446;SDS011;30152;52.066;5.358;2023-08-07T09:18:32;11.82;;;2.50;;
44446;SDS011;30152;52.066;5.358;2023-08-07T09:20:58;14.63;;;2.40;;
44446;SDS011;30152;52.066;5.358;2023-08-07T09:23:24;14.85;;;2.80;;
44446;SDS011;30152;52.066;5.358;2023-08-07T09:25:58;16.58;;;2.92;;
44446;SDS011;30152;52.066;5.358;2023-08-07T09:28:28;18.10;;;3.08;;
44446;SDS011;30152;52.066;5.358;2023-08-07T09:30:55;15.98;;;3.15;;
44446;SDS011;30152;52.066;5.358;2023-08-07T09:33:24;12.27;;;2.88;;
44446;SDS011;30152;52.066;5.358;2023-08-07T09:36:00;15.18;;;2.67;;
44446;SDS011;30152;52.066;5.358;2023-08-07T09:38:30;8.70;;;2.55;;
44446;SDS011;30152;52.066;5.358;2023-08-07T09:41:00;13.35;;;2.95;;
44446;SDS011;30152;52.066;5.358;2023-08-07T09:43:28;8.82;;;2.90;;
44446;SDS011;30152;52.066;5.358;2023-08-07T09:46:06;12.38;;;3.88;;
44446;SDS011;30152;52.066;5.358;2023-08-07T09:48:38;11.00;;;2.83;;
44446;SDS011;30152;52.066;5.358;2023-08-07T09:51:07;10.55;;;3.08;;
44446;SDS011;30152;52.066;5.358;2023-08-07T09:53:33;9.48;;;2.50;;
44446;SDS011;30152;52.066;5.358;2023-08-07T09:55:59;8.80;;;2.85;;
44446;SDS011;30152;52.066;5.358;2023-08-07T09:58:25;11.07;;;2.10;;
44446;SDS011;30152;52.066;5.358;2023-08-07T10:00:51;13.57;;;2.25;;
44446;SDS011;30152;52.066;5.358;2023-08-07T10:03:24;14.48;;;2.92;;
44446;SDS011;30152;52.066;5.358;2023-08-07T10:05:51;8.88;;;2.40;;
44446;SDS011;30152;52.066;5.358;2023-08-07T10:08:16;11.50;;;2.40;;
44446;SDS011;30152;52.066;5.358;2023-08-07T10:10:43;15.10;;;2.30;;
44446;SDS011;30152;52.066;5.358;2023-08-07T10:13:09;7.30;;;2.03;;
44446;SDS011;30152;52.066;5.358;2023-08-07T10:15:35;14.15;;;2.47;;
44446;SDS011;30152;52.066;5.358;2023-08-07T10:18:01;10.63;;;2.70;;
44446;SDS011;30152;52.066;5.358;2023-08-07T10:20:28;10.10;;;2.30;;
44446;SDS011;30152;52.066;5.358;2023-08-07T10:23:00;15.43;;;2.67;;
44446;SDS011;30152;52.066;5.358;2023-08-07T10:25:29;10.23;;;1.70;;
44446;SDS011;30152;52.066;5.358;2023-08-07T10:27:55;10.55;;;2.25;;
44446;SDS011;30152;52.066;5.358;2023-08-07T10:30:25;10.15;;;2.20;;
44446;SDS011;30152;52.066;5.358;2023-08-07T10:32:51;8.82;;;2.10;;
44446;SDS011;30152;52.066;5.358;2023-08-07T10:35:31;7.68;;;1.70;;
44446;SDS011;30152;52.066;5.358;2023-08-07T10:38:09;10.43;;;2.63;;
44446;SDS011;30152;52.066;5.358;2023-08-07T10:43:37;11.15;;;2.10;;
44446;SDS011;30152;52.066;5.358;2023-08-07T10:46:04;10.55;;;1.83;;
44446;SDS011;30152;52.066;5.358;2023-08-07T10:48:56;10.40;;;1.83;;
44446;SDS011;30152;52.066;5.358;2023-08-07T10:51:23;13.65;;;2.30;;
44446;SDS011;30152;52.066;5.358;2023-08-07T10:53:55;13.77;;;2.20;;
44446;SDS011;30152;52.066;5.358;2023-08-07T10:56:31;11.20;;;2.08;;
44446;SDS011;30152;52.066;5.358;2023-08-07T10:59:06;9.05;;;2.58;;
44446;SDS011;30152;52.066;5.358;2023-08-07T11:01:42;5.15;;;1.65;;
44446;SDS011;30152;52.066;5.358;2023-08-07T11:04:11;18.85;;;2.17;;
44446;SDS011;30152;52.066;5.358;2023-08-07T11:06:38;9.77;;;1.80;;
44446;SDS011;30152;52.066;5.358;2023-08-07T11:09:05;11.23;;;1.70;;
44446;SDS011;30152;52.066;5.358;2023-08-07T11:11:36;9.88;;;1.95;;
44446;SDS011;30152;52.066;5.358;2023-08-07T11:14:12;9.88;;;1.83;;
44446;SDS011;30152;52.066;5.358;2023-08-07T11:16:39;11.60;;;2.08;;
44446;SDS011;30152;52.066;5.358;2023-08-07T11:19:05;8.00;;;2.17;;
44446;SDS011;30152;52.066;5.358;2023-08-07T11:21:31;10.30;;;2.17;;
44446;SDS011;30152;52.066;5.358;2023-08-07T11:23:57;9.75;;;2.10;;
44446;SDS011;30152;52.066;5.358;2023-08-07T11:26:23;7.93;;;2.25;;
44446;SDS011;30152;52.066;5.358;2023-08-07T11:28:53;12.77;;;2.55;;
44446;SDS011;30152;52.066;5.358;2023-08-07T11:31:19;16.15;;;2.75;;
44446;SDS011;30152;52.066;5.358;2023-08-07T11:33:45;10.88;;;2.47;;
44446;SDS011;30152;52.066;5.358;2023-08-07T11:36:15;12.18;;;2.25;;
44446;SDS011;30152;52.066;5.358;2023-08-07T11:38:41;10.20;;;2.20;;
44446;SDS011;30152;52.066;5.358;2023-08-07T11:41:14;13.93;;;2.03;;
44446;SDS011;30152;52.066;5.358;2023-08-07T11:43:41;9.13;;;2.20;;
44446;SDS011;30152;52.066;5.358;2023-08-07T11:46:08;13.15;;;2.58;;
44446;SDS011;30152;52.066;5.358;2023-08-07T11:48:35;11.90;;;2.55;;
44446;SDS011;30152;52.066;5.358;2023-08-07T11:51:02;14.05;;;2.72;;
44446;SDS011;30152;52.066;5.358;2023-08-07T11:53:29;10.68;;;2.42;;
44446;SDS011;30152;52.066;5.358;2023-08-07T11:55:57;9.40;;;2.08;;
44446;SDS011;30152;52.066;5.358;2023-08-07T11:58:25;11.95;;;3.35;;
44446;SDS011;30152;52.066;5.358;2023-08-07T12:00:53;12.40;;;2.15;;
44446;SDS011;30152;52.066;5.358;2023-08-07T12:05:55;9.10;;;1.95;;
44446;SDS011;30152;52.066;5.358;2023-08-07T12:08:22;7.93;;;2.22;;
44446;SDS011;30152;52.066;5.358;2023-08-07T12:10:54;11.18;;;2.47;;
44446;SDS011;30152;52.066;5.358;2023-08-07T12:13:23;11.30;;;2.13;;
44446;SDS011;30152;52.066;5.358;2023-08-07T12:15:51;10.60;;;2.00;;
44446;SDS011;30152;52.066;5.358;2023-08-07T12:18:18;9.77;;;2.13;;
44446;SDS011;30152;52.066;5.358;2023-08-07T12:20:45;9.02;;;2.17;;
44446;SDS011;30152;52.066;5.358;2023-08-07T12:23:14;11.93;;;2.08;;
44446;SDS011;30152;52.066;5.358;2023-08-07T12:25:44;9.82;;;1.88;;
44446;SDS011;30152;52.066;5.358;2023-08-07T12:28:10;12.25;;;2.00;;
44446;SDS011;30152;52.066;5.358;2023-08-07T12:30:38;9.25;;;2.00;;
44446;SDS011;30152;52.066;5.358;2023-08-07T12:33:04;7.13;;;1.88;;
44446;SDS011;30152;52.066;5.358;2023-08-07T12:35:32;8.73;;;2.17;;
44446;SDS011;30152;52.066;5.358;2023-08-07T12:37:57;7.63;;;1.80;;
44446;SDS011;30152;52.066;5.358;2023-08-07T12:40:23;11.32;;;1.90;;
44446;SDS011;30152;52.066;5.358;2023-08-07T12:42:50;5.45;;;2.15;;
44446;SDS011;30152;52.066;5.358;2023-08-07T12:45:16;9.52;;;2.30;;
44446;SDS011;30152;52.066;5.358;2023-08-07T12:47:43;5.32;;;1.40;;
44446;SDS011;30152;52.066;5.358;2023-08-07T12:50:09;8.93;;;1.75;;
44446;SDS011;30152;52.066;5.358;2023-08-07T12:52:35;9.20;;;1.95;;
44446;SDS011;30152;52.066;5.358;2023-08-07T12:55:01;8.95;;;1.70;;
44446;SDS011;30152;52.066;5.358;2023-08-07T12:57:27;9.45;;;1.77;;
44446;SDS011;30152;52.066;5.358;2023-08-07T12:59:52;7.45;;;2.08;;
44446;SDS011;30152;52.066;5.358;2023-08-07T13:02:18;7.13;;;1.30;;
44446;SDS011;30152;52.066;5.358;2023-08-07T13:04:44;8.07;;;1.80;;
44446;SDS011;30152;52.066;5.358;2023-08-07T13:07:11;10.85;;;1.90;;
44446;SDS011;30152;52.066;5.358;2023-08-07T13:09:37;7.47;;;1.65;;
44446;SDS011;30152;52.066;5.358;2023-08-07T13:12:03;6.50;;;1.33;;
44446;SDS011;30152;52.066;5.358;2023-08-07T13:14:29;7.47;;;1.58;;
44446;SDS011;30152;52.066;5.358;2023-08-07T13:16:55;9.65;;;1.83;;
44446;SDS011;30152;52.066;5.358;2023-08-07T13:19:21;4.75;;;1.27;;
44446;SDS011;30152;52.066;5.358;2023-08-07T13:21:47;10.43;;;1.52;;
44446;SDS011;30152;52.066;5.358;2023-08-07T13:24:13;6.40;;;1.52;;
44446;SDS011;30152;52.066;5.358;2023-08-07T13:26:39;7.03;;;1.85;;
44446;SDS011;30152;52.066;5.358;2023-08-07T13:29:09;9.15;;;1.55;;
44446;SDS011;30152;52.066;5.358;2023-08-07T13:31:35;7.53;;;1.35;;
44446;SDS011;30152;52.066;5.358;2023-08-07T13:34:01;5.10;;;1.20;;
44446;SDS011;30152;52.066;5.358;2023-08-07T13:36:32;5.07;;;1.35;;
44446;SDS011;30152;52.066;5.358;2023-08-07T13:38:58;8.48;;;1.60;;
44446;SDS011;30152;52.066;5.358;2023-08-07T13:41:26;9.43;;;1.25;;
44446;SDS011;30152;52.066;5.358;2023-08-07T13:43:52;5.75;;;1.35;;
44446;SDS011;30152;52.066;5.358;2023-08-07T13:46:18;6.43;;;1.20;;
44446;SDS011;30152;52.066;5.358;2023-08-07T13:48:47;5.63;;;1.65;;
44446;SDS011;30152;52.066;5.358;2023-08-07T13:51:13;5.90;;;1.38;;
44446;SDS011;30152;52.066;5.358;2023-08-07T13:53:39;4.80;;;1.42;;
44446;SDS011;30152;52.066;5.358;2023-08-07T13:56:05;4.82;;;1.38;;
44446;SDS011;30152;52.066;5.358;2023-08-07T13:58:33;7.70;;;1.38;;
44446;SDS011;30152;52.066;5.358;2023-08-07T14:00:59;7.43;;;1.25;;
44446;SDS011;30152;52.066;5.358;2023-08-07T14:03:24;5.47;;;1.23;;
44446;SDS011;30152;52.066;5.358;2023-08-07T14:05:50;5.13;;;1.02;;
44446;SDS011;30152;52.066;5.358;2023-08-07T14:08:17;5.88;;;1.30;;
44446;SDS011;30152;52.066;5.358;2023-08-07T14:10:43;5.22;;;0.93;;
44446;SDS011;30152;52.066;5.358;2023-08-07T14:13:09;7.22;;;1.73;;
44446;SDS011;30152;52.066;5.358;2023-08-07T14:15:36;5.30;;;1.17;;
44446;SDS011;30152;52.066;5.358;2023-08-07T14:18:02;5.38;;;1.20;;
44446;SDS011;30152;52.066;5.358;2023-08-07T14:20:28;4.93;;;1.27;;
44446;SDS011;30152;52.066;5.358;2023-08-07T14:22:54;7.38;;;1.50;;
44446;SDS011;30152;52.066;5.358;2023-08-07T14:25:20;4.13;;;1.13;;
44446;SDS011;30152;52.066;5.358;2023-08-07T14:27:47;6.05;;;1.20;;
44446;SDS011;30152;52.066;5.358;2023-08-07T14:30:13;5.95;;;1.40;;
44446;SDS011;30152;52.066;5.358;2023-08-07T14:32:39;6.20;;;1.60;;
44446;SDS011;30152;52.066;5.358;2023-08-07T14:35:05;8.40;;;1.20;;
44446;SDS011;30152;52.066;5.358;2023-08-07T14:37:31;8.43;;;1.42;;
44446;SDS011;30152;52.066;5.358;2023-08-07T14:39:57;4.72;;;1.20;;
44446;SDS011;30152;52.066;5.358;2023-08-07T14:42:23;6.95;;;1.55;;
44446;SDS011;30152;52.066;5.358;2023-08-07T14:44:49;5.30;;;1.60;;
44446;SDS011;30152;52.066;5.358;2023-08-07T14:47:15;6.97;;;1.20;;
44446;SDS011;30152;52.066;5.358;2023-08-07T14:49:40;6.70;;;1.70;;
44446;SDS011;30152;52.066;5.358;2023-08-07T14:52:06;6.88;;;1.67;;
44446;SDS011;30152;52.066;5.358;2023-08-07T14:54:32;8.75;;;1.50;;
44446;SDS011;30152;52.066;5.358;2023-08-07T14:56:58;5.78;;;1.27;;
44446;SDS011;30152;52.066;5.358;2023-08-07T14:59:24;5.80;;;1.58;;
44446;SDS011;30152;52.066;5.358;2023-08-07T15:01:50;7.55;;;1.40;;
44446;SDS011;30152;52.066;5.358;2023-08-07T15:04:16;4.63;;;1.55;;
44446;SDS011;30152;52.066;5.358;2023-08-07T15:06:42;7.97;;;1.50;;
44446;SDS011;30152;52.066;5.358;2023-08-07T15:09:11;5.35;;;1.23;;
44446;SDS011;30152;52.066;5.358;2023-08-07T15:11:37;5.05;;;1.45;;
44446;SDS011;30152;52.066;5.358;2023-08-07T15:14:03;8.80;;;1.60;;
44446;SDS011;30152;52.066;5.358;2023-08-07T15:16:29;5.97;;;1.70;;
44446;SDS011;30152;52.066;5.358;2023-08-07T15:18:55;8.10;;;1.67;;
44446;SDS011;30152;52.066;5.358;2023-08-07T15:21:21;6.05;;;1.50;;
44446;SDS011;30152;52.066;5.358;2023-08-07T15:23:47;7.35;;;1.80;;
44446;SDS011;30152;52.066;5.358;2023-08-07T15:26:13;6.60;;;1.60;;
44446;SDS011;30152;52.066;5.358;2023-08-07T15:28:38;7.50;;;1.92;;
44446;SDS011;30152;52.066;5.358;2023-08-07T15:31:04;7.85;;;1.52;;
44446;SDS011;30152;52.066;5.358;2023-08-07T15:33:30;6.95;;;1.70;;
44446;SDS011;30152;52.066;5.358;2023-08-07T15:35:56;7.35;;;1.70;;
44446;SDS011;30152;52.066;5.358;2023-08-07T15:38:23;8.07;;;1.80;;
44446;SDS011;30152;52.066;5.358;2023-08-07T15:40:50;6.50;;;1.80;;
44446;SDS011;30152;52.066;5.358;2023-08-07T15:43:16;8.98;;;2.00;;
44446;SDS011;30152;52.066;5.358;2023-08-07T15:45:44;6.93;;;1.80;;
44446;SDS011;30152;52.066;5.358;2023-08-07T15:48:10;6.88;;;1.77;;
44446;SDS011;30152;52.066;5.358;2023-08-07T15:50:35;6.95;;;2.45;;
44446;SDS011;30152;52.066;5.358;2023-08-07T15:53:04;4.68;;;1.55;;
44446;SDS011;30152;52.066;5.358;2023-08-07T15:55:29;5.00;;;1.67;;
44446;SDS011;30152;52.066;5.358;2023-08-07T15:57:56;9.23;;;2.22;;
44446;SDS011;30152;52.066;5.358;2023-08-07T16:00:22;6.13;;;1.52;;
44446;SDS011;30152;52.066;5.358;2023-08-07T16:02:48;7.63;;;1.75;;
44446;SDS011;30152;52.066;5.358;2023-08-07T16:05:14;7.80;;;1.75;;
44446;SDS011;30152;52.066;5.358;2023-08-07T16:07:40;7.47;;;2.10;;
44446;SDS011;30152;52.066;5.358;2023-08-07T16:10:06;4.95;;;1.75;;
44446;SDS011;30152;52.066;5.358;2023-08-07T16:12:32;4.97;;;1.90;;
44446;SDS011;30152;52.066;5.358;2023-08-07T16:14:58;10.32;;;1.75;;
44446;SDS011;30152;52.066;5.358;2023-08-07T16:17:26;7.35;;;2.17;;
44446;SDS011;30152;52.066;5.358;2023-08-07T16:19:54;6.28;;;1.73;;
44446;SDS011;30152;52.066;5.358;2023-08-07T16:22:20;8.52;;;2.35;;
44446;SDS011;30152;52.066;5.358;2023-08-07T16:24:45;5.55;;;1.98;;
44446;SDS011;30152;52.066;5.358;2023-08-07T16:27:12;7.43;;;2.28;;
44446;SDS011;30152;52.066;5.358;2023-08-07T16:29:38;9.70;;;2.08;;
44446;SDS011;30152;52.066;5.358;2023-08-07T16:32:04;7.43;;;2.00;;
44446;SDS011;30152;52.066;5.358;2023-08-07T16:34:31;7.88;;;2.22;;
44446;SDS011;30152;52.066;5.358;2023-08-07T16:36:57;6.43;;;1.70;;
44446;SDS011;30152;52.066;5.358;2023-08-07T16:39:23;9.43;;;2.00;;
44446;SDS011;30152;52.066;5.358;2023-08-07T16:41:49;5.53;;;1.83;;
44446;SDS011;30152;52.066;5.358;2023-08-07T16:44:15;6.18;;;1.80;;
44446;SDS011;30152;52.066;5.358;2023-08-07T16:46:41;8.52;;;2.08;;
44446;SDS011;30152;52.066;5.358;2023-08-07T16:49:07;6.22;;;1.75;;
44446;SDS011;30152;52.066;5.358;2023-08-07T16:51:33;6.93;;;1.90;;
44446;SDS011;30152;52.066;5.358;2023-08-07T16:53:59;5.82;;;1.95;;
44446;SDS011;30152;52.066;5.358;2023-08-07T16:56:26;5.80;;;1.60;;
44446;SDS011;30152;52.066;5.358;2023-08-07T16:58:52;6.50;;;1.70;;
44446;SDS011;30152;52.066;5.358;2023-08-07T17:01:18;5.47;;;1.90;;
44446;SDS011;30152;52.066;5.358;2023-08-07T17:03:44;8.00;;;2.10;;
44446;SDS011;30152;52.066;5.358;2023-08-07T17:06:10;4.55;;;1.70;;
44446;SDS011;30152;52.066;5.358;2023-08-07T17:08:36;6.32;;;1.83;;
44446;SDS011;30152;52.066;5.358;2023-08-07T17:11:03;7.50;;;1.67;;
44446;SDS011;30152;52.066;5.358;2023-08-07T17:13:29;5.85;;;1.63;;
44446;SDS011;30152;52.066;5.358;2023-08-07T17:15:56;8.02;;;1.92;;
44446;SDS011;30152;52.066;5.358;2023-08-07T17:18:22;8.35;;;2.00;;
44446;SDS011;30152;52.066;5.358;2023-08-07T17:20:48;4.53;;;1.88;;
44446;SDS011;30152;52.066;5.358;2023-08-07T17:23:14;6.10;;;2.22;;
44446;SDS011;30152;52.066;5.358;2023-08-07T17:25:40;6.45;;;1.92;;
44446;SDS011;30152;52.066;5.358;2023-08-07T17:28:06;7.10;;;2.20;;
44446;SDS011;30152;52.066;5.358;2023-08-07T17:30:31;5.60;;;2.22;;
44446;SDS011;30152;52.066;5.358;2023-08-07T17:32:57;5.82;;;2.15;;
44446;SDS011;30152;52.066;5.358;2023-08-07T17:35:24;8.05;;;2.55;;
44446;SDS011;30152;52.066;5.358;2023-08-07T17:37:49;7.07;;;2.42;;
44446;SDS011;30152;52.066;5.358;2023-08-07T17:40:15;4.90;;;2.20;;
44446;SDS011;30152;52.066;5.358;2023-08-07T17:42:42;5.25;;;2.63;;
44446;SDS011;30152;52.066;5.358;2023-08-07T17:45:07;6.90;;;2.55;;
44446;SDS011;30152;52.066;5.358;2023-08-07T17:47:33;8.13;;;2.45;;
44446;SDS011;30152;52.066;5.358;2023-08-07T17:49:59;6.15;;;2.38;;
44446;SDS011;30152;52.066;5.358;2023-08-07T17:52:25;8.80;;;2.88;;
44446;SDS011;30152;52.066;5.358;2023-08-07T17:54:54;7.63;;;2.75;;
44446;SDS011;30152;52.066;5.358;2023-08-07T17:57:19;8.02;;;2.05;;
44446;SDS011;30152;52.066;5.358;2023-08-07T17:59:45;5.47;;;2.03;;
44446;SDS011;30152;52.066;5.358;2023-08-07T18:02:12;5.28;;;1.63;;
44446;SDS011;30152;52.066;5.358;2023-08-07T18:04:38;5.78;;;2.03;;
44446;SDS011;30152;52.066;5.358;2023-08-07T18:07:06;4.13;;;1.60;;
44446;SDS011;30152;52.066;5.358;2023-08-07T18:09:32;3.70;;;1.23;;
44446;SDS011;30152;52.066;5.358;2023-08-07T18:11:58;5.20;;;1.33;;
44446;SDS011;30152;52.066;5.358;2023-08-07T18:14:24;3.83;;;1.30;;
44446;SDS011;30152;52.066;5.358;2023-08-07T18:16:50;4.30;;;1.20;;
44446;SDS011;30152;52.066;5.358;2023-08-07T18:19:16;4.93;;;1.10;;
44446;SDS011;30152;52.066;5.358;2023-08-07T18:21:42;3.35;;;1.30;;
44446;SDS011;30152;52.066;5.358;2023-08-07T18:24:08;7.05;;;1.40;;
44446;SDS011;30152;52.066;5.358;2023-08-07T18:26:34;4.47;;;1.48;;
44446;SDS011;30152;52.066;5.358;2023-08-07T18:28:59;9.73;;;1.38;;
44446;SDS011;30152;52.066;5.358;2023-08-07T18:31:25;4.32;;;1.30;;
44446;SDS011;30152;52.066;5.358;2023-08-07T18:33:55;4.80;;;2.08;;
44446;SDS011;30152;52.066;5.358;2023-08-07T18:36:21;4.38;;;1.40;;
44446;SDS011;30152;52.066;5.358;2023-08-07T18:38:46;5.95;;;1.88;;
44446;SDS011;30152;52.066;5.358;2023-08-07T18:41:14;3.97;;;1.45;;
44446;SDS011;30152;52.066;5.358;2023-08-07T18:43:40;5.30;;;1.60;;
44446;SDS011;30152;52.066;5.358;2023-08-07T18:46:06;7.47;;;1.58;;
44446;SDS011;30152;52.066;5.358;2023-08-07T18:48:32;8.05;;;1.83;;
44446;SDS011;30152;52.066;5.358;2023-08-07T18:50:58;5.43;;;1.48;;
44446;SDS011;30152;52.066;5.358;2023-08-07T18:53:25;5.85;;;1.70;;
44446;SDS011;30152;52.066;5.358;2023-08-07T18:55:51;4.18;;;1.40;;
44446;SDS011;30152;52.066;5.358;2023-08-07T18:58:17;3.95;;;1.33;;
44446;SDS011;30152;52.066;5.358;2023-08-07T19:00:43;4.50;;;1.80;;
44446;SDS011;30152;52.066;5.358;2023-08-07T19:03:09;6.45;;;1.60;;
44446;SDS011;30152;52.066;5.358;2023-08-07T19:05:35;4.53;;;1.63;;
44446;SDS011;30152;52.066;5.358;2023-08-07T19:08:01;9.13;;;2.35;;
44446;SDS011;30152;52.066;5.358;2023-08-07T19:10:27;6.32;;;2.00;;
44446;SDS011;30152;52.066;5.358;2023-08-07T19:12:54;3.65;;;1.30;;
44446;SDS011;30152;52.066;5.358;2023-08-07T19:15:19;3.30;;;1.45;;
44446;SDS011;30152;52.066;5.358;2023-08-07T19:17:45;5.15;;;1.83;;
44446;SDS011;30152;52.066;5.358;2023-08-07T19:20:11;3.50;;;1.48;;
44446;SDS011;30152;52.066;5.358;2023-08-07T19:22:37;4.25;;;1.65;;
44446;SDS011;30152;52.066;5.358;2023-08-07T19:25:03;5.13;;;1.73;;
44446;SDS011;30152;52.066;5.358;2023-08-07T19:27:29;7.50;;;2.28;;
44446;SDS011;30152;52.066;5.358;2023-08-07T19:29:55;5.40;;;2.08;;
44446;SDS011;30152;52.066;5.358;2023-08-07T19:32:23;5.65;;;2.22;;
44446;SDS011;30152;52.066;5.358;2023-08-07T19:34:48;5.18;;;2.00;;
44446;SDS011;30152;52.066;5.358;2023-08-07T19:37:14;4.93;;;1.85;;
44446;SDS011;30152;52.066;5.358;2023-08-07T19:39:40;8.27;;;2.28;;
44446;SDS011;30152;52.066;5.358;2023-08-07T19:42:06;6.20;;;1.92;;
44446;SDS011;30152;52.066;5.358;2023-08-07T19:44:32;5.65;;;1.95;;
44446;SDS011;30152;52.066;5.358;2023-08-07T19:47:00;5.88;;;2.25;;
44446;SDS011;30152;52.066;5.358;2023-08-07T19:49:25;5.10;;;1.80;;
44446;SDS011;30152;52.066;5.358;2023-08-07T19:51:51;6.18;;;2.15;;
44446;SDS011;30152;52.066;5.358;2023-08-07T19:54:16;6.90;;;2.20;;
44446;SDS011;30152;52.066;5.358;2023-08-07T19:56:42;5.18;;;2.00;;
44446;SDS011;30152;52.066;5.358;2023-08-07T19:59:08;4.63;;;2.28;;
44446;SDS011;30152;52.066;5.358;2023-08-07T20:01:34;6.55;;;2.00;;
44446;SDS011;30152;52.066;5.358;2023-08-07T20:04:00;7.60;;;2.50;;
44446;SDS011;30152;52.066;5.358;2023-08-07T20:06:26;7.95;;;2.53;;
44446;SDS011;30152;52.066;5.358;2023-08-07T20:08:52;7.53;;;2.30;;
44446;SDS011;30152;52.066;5.358;2023-08-07T20:11:17;6.20;;;2.80;;
44446;SDS011;30152;52.066;5.358;2023-08-07T20:13:43;7.50;;;2.90;;
44446;SDS011;30152;52.066;5.358;2023-08-07T20:16:10;9.43;;;2.88;;
44446;SDS011;30152;52.066;5.358;2023-08-07T20:18:35;5.65;;;2.33;;
44446;SDS011;30152;52.066;5.358;2023-08-07T20:21:01;7.18;;;2.80;;
44446;SDS011;30152;52.066;5.358;2023-08-07T20:23:28;8.55;;;2.22;;
44446;SDS011;30152;52.066;5.358;2023-08-07T20:25:54;6.38;;;2.60;;
44446;SDS011;30152;52.066;5.358;2023-08-07T20:28:20;10.00;;;2.72;;
44446;SDS011;30152;52.066;5.358;2023-08-07T20:30:45;6.57;;;2.97;;
44446;SDS011;30152;52.066;5.358;2023-08-07T20:33:11;8.40;;;2.25;;
44446;SDS011;30152;52.066;5.358;2023-08-07T20:35:37;5.95;;;2.50;;
44446;SDS011;30152;52.066;5.358;2023-08-07T20:38:02;8.15;;;2.53;;
44446;SDS011;30152;52.066;5.358;2023-08-07T20:40:28;7.32;;;2.70;;
44446;SDS011;30152;52.066;5.358;2023-08-07T20:42:56;6.03;;;2.67;;
44446;SDS011;30152;52.066;5.358;2023-08-07T20:45:24;10.23;;;2.80;;
44446;SDS011;30152;52.066;5.358;2023-08-07T20:47:50;7.38;;;2.47;;
44446;SDS011;30152;52.066;5.358;2023-08-07T20:50:15;7.15;;;2.67;;
44446;SDS011;30152;52.066;5.358;2023-08-07T20:52:43;7.20;;;2.63;;
44446;SDS011;30152;52.066;5.358;2023-08-07T20:55:08;5.47;;;2.95;;
44446;SDS011;30152;52.066;5.358;2023-08-07T20:57:34;8.85;;;3.35;;
44446;SDS011;30152;52.066;5.358;2023-08-07T21:00:01;7.15;;;3.55;;
44446;SDS011;30152;52.066;5.358;2023-08-07T21:02:28;8.38;;;4.07;;
44446;SDS011;30152;52.066;5.358;2023-08-07T21:04:54;8.48;;;4.00;;
44446;SDS011;30152;52.066;5.358;2023-08-07T21:07:20;7.40;;;3.47;;
44446;SDS011;30152;52.066;5.358;2023-08-07T21:09:46;6.57;;;2.78;;
44446;SDS011;30152;52.066;5.358;2023-08-07T21:12:11;8.60;;;3.30;;
44446;SDS011;30152;52.066;5.358;2023-08-07T21:14:37;7.60;;;3.22;;
44446;SDS011;30152;52.066;5.358;2023-08-07T21:17:02;7.55;;;3.15;;
44446;SDS011;30152;52.066;5.358;2023-08-07T21:19:29;6.93;;;3.13;;
44446;SDS011;30152;52.066;5.358;2023-08-07T21:21:57;9.05;;;3.17;;
44446;SDS011;30152;52.066;5.358;2023-08-07T21:24:23;6.63;;;3.05;;
44446;SDS011;30152;52.066;5.358;2023-08-07T21:26:48;8.20;;;3.20;;
44446;SDS011;30152;52.066;5.358;2023-08-07T21:29:15;10.57;;;3.28;;
44446;SDS011;30152;52.066;5.358;2023-08-07T21:31:40;9.82;;;3.17;;
44446;SDS011;30152;52.066;5.358;2023-08-07T21:34:06;5.90;;;2.90;;
44446;SDS011;30152;52.066;5.358;2023-08-07T21:36:34;6.03;;;2.78;;
44446;SDS011;30152;52.066;5.358;2023-08-07T21:38:59;7.57;;;3.40;;
